Time;durP1;ratioP1;P1;durP2;ratioP2;P2;SDS_P1;SDS_P2;PMS_P1;PMS_P2;Temp;Humidity;BMP_temperature;BMP_pressure;BME280_temperature;BME280_humidity;BME280_pressure;Samples;Min_cycle;Max_cycle;Signal;HPM_P1;HPM_P2
2022/02/25 00:02:25;;;;;;;7.30;1.48;;;4.10;99.90;;;;;;5002780;28;20181;-59
2022/02/25 00:04:53;;;;;;;8.30;2.10;;;4.10;99.90;;;;;;5001733;28;20149;-59
2022/02/25 00:07:19;;;;;;;6.65;1.85;;;4.10;99.90;;;;;;5004355;28;20142;-59
2022/02/25 00:09:46;;;;;;;7.70;1.88;;;4.10;99.90;;;;;;5004571;28;20077;-60
2022/02/25 00:12:13;;;;;;;7.05;1.80;;;4.10;99.90;;;;;;5004161;28;20137;-59
2022/02/25 00:14:39;;;;;;;6.18;1.70;;;4.00;99.90;;;;;;5003085;28;20072;-60
2022/02/25 00:17:06;;;;;;;7.30;1.77;;;4.00;99.90;;;;;;5002766;28;20042;-60
2022/02/25 00:19:33;;;;;;;5.05;1.58;;;4.00;99.90;;;;;;5004285;28;20179;-60
2022/02/25 00:22:00;;;;;;;7.38;2.03;;;4.00;99.90;;;;;;5004437;28;20049;-60
2022/02/25 00:24:27;;;;;;;4.60;1.75;;;4.00;99.90;;;;;;5001514;28;20081;-60
2022/02/25 00:26:53;;;;;;;5.95;1.77;;;4.00;99.90;;;;;;5001314;28;20085;-60
2022/02/25 00:29:20;;;;;;;6.43;1.85;;;4.00;99.90;;;;;;5006245;28;20391;-60
2022/02/25 00:31:47;;;;;;;7.90;1.83;;;4.00;99.90;;;;;;5003945;28;20255;-60
2022/02/25 00:34:14;;;;;;;5.90;2.55;;;3.90;99.90;;;;;;5002816;28;20073;-60
2022/02/25 00:36:40;;;;;;;7.53;1.88;;;3.90;99.90;;;;;;5004515;28;20480;-60
2022/02/25 00:39:07;;;;;;;6.63;1.90;;;4.00;99.90;;;;;;5003155;28;20093;-60
2022/02/25 00:41:34;;;;;;;7.50;1.77;;;3.90;99.90;;;;;;5004460;28;20442;-59
2022/02/25 00:44:01;;;;;;;7.45;2.00;;;3.90;99.90;;;;;;4999962;28;20096;-59
2022/02/25 00:46:28;;;;;;;8.75;2.00;;;4.00;99.90;;;;;;4999637;28;20150;-61
2022/02/25 00:48:55;;;;;;;10.18;2.17;;;4.00;99.90;;;;;;5021317;28;20041;-60
2022/02/25 00:51:22;;;;;;;5.10;1.80;;;4.00;99.90;;;;;;5004186;28;20085;-61
2022/02/25 00:53:49;;;;;;;10.60;2.22;;;4.10;99.90;;;;;;5003477;28;20132;-61
2022/02/25 00:56:15;;;;;;;8.82;2.20;;;4.10;99.90;;;;;;5003615;28;20125;-60
2022/02/25 00:58:42;;;;;;;7.35;2.08;;;4.10;99.90;;;;;;5002812;28;20125;-60
2022/02/25 01:01:09;;;;;;;7.68;1.40;;;4.20;99.90;;;;;;5003597;28;20129;-60
2022/02/25 01:03:36;;;;;;;8.50;2.10;;;4.20;99.90;;;;;;5003976;28;20097;-60
2022/02/25 01:06:03;;;;;;;6.32;1.80;;;4.20;99.90;;;;;;5003717;28;20473;-61
2022/02/25 01:08:30;;;;;;;7.65;1.95;;;4.30;99.90;;;;;;5002961;28;20073;-61
2022/02/25 01:10:57;;;;;;;9.25;2.20;;;4.30;99.90;;;;;;5003477;28;20505;-60
2022/02/25 01:13:24;;;;;;;9.43;2.05;;;4.40;99.90;;;;;;5002791;28;20125;-60
2022/02/25 01:15:51;;;;;;;8.15;2.20;;;4.40;99.90;;;;;;5005252;28;20092;-60
2022/02/25 01:18:22;;;;;;;7.80;1.80;;;4.40;99.90;;;;;;5001866;28;20046;-60
2022/02/25 01:20:49;;;;;;;8.02;2.83;;;4.40;99.90;;;;;;5000799;28;20049;-61
2022/02/25 01:23:15;;;;;;;7.35;1.80;;;4.40;99.90;;;;;;5003052;28;20455;-60
2022/02/25 01:25:42;;;;;;;8.30;2.15;;;4.40;99.90;;;;;;5003018;28;20391;-60
2022/02/25 01:28:09;;;;;;;6.18;1.60;;;4.40;99.90;;;;;;5002713;28;20057;-61
2022/02/25 01:30:38;;;;;;;8.63;2.15;;;4.40;99.90;;;;;;5002009;28;20128;-60
2022/02/25 01:33:05;;;;;;;7.80;2.15;;;4.40;99.90;;;;;;5003153;28;20081;-61
2022/02/25 01:35:35;;;;;;;7.18;2.22;;;4.40;99.90;;;;;;5003120;28;20050;-60
2022/02/25 01:38:02;;;;;;;8.55;2.30;;;4.50;99.90;;;;;;5003113;28;20057;-59
2022/02/25 01:40:28;;;;;;;11.82;3.22;;;4.50;99.90;;;;;;5003461;28;20728;-60
2022/02/25 01:42:55;;;;;;;8.98;2.35;;;4.50;99.90;;;;;;5002893;28;20129;-61
2022/02/25 01:45:22;;;;;;;8.35;2.08;;;4.50;99.90;;;;;;5001432;28;20045;-60
2022/02/25 01:47:49;;;;;;;8.85;2.25;;;4.50;99.90;;;;;;5002276;28;20084;-61
2022/02/25 01:50:16;;;;;;;7.95;2.40;;;4.50;99.90;;;;;;5002652;28;20041;-61
2022/02/25 01:53:00;;;;;;;5.72;1.88;;;4.50;99.90;;;;;;5002946;28;20136;-61
2022/02/25 01:55:29;;;;;;;8.75;2.63;;;4.50;99.90;;;;;;5000907;28;20129;-60
2022/02/25 01:57:55;;;;;;;6.93;2.03;;;4.50;99.90;;;;;;5001139;28;20097;-60
2022/02/25 02:00:22;;;;;;;9.38;1.90;;;4.50;99.90;;;;;;5001500;28;20060;-61
2022/02/25 02:02:50;;;;;;;6.55;1.92;;;4.50;99.90;;;;;;5002821;28;20498;-61
2022/02/25 02:05:16;;;;;;;8.48;2.47;;;4.50;99.90;;;;;;5002427;28;20448;-61
2022/02/25 02:07:43;;;;;;;8.70;2.35;;;4.50;99.90;;;;;;5002191;28;20528;-60
2022/02/25 02:10:10;;;;;;;6.47;1.90;;;4.60;99.90;;;;;;5003052;28;20096;-60
2022/02/25 02:12:37;;;;;;;12.50;2.33;;;4.60;99.90;;;;;;5000200;28;20073;-61
2022/02/25 02:15:04;;;;;;;8.25;2.50;;;4.60;99.90;;;;;;5000735;28;20497;-61
2022/02/25 02:17:32;;;;;;;6.03;1.75;;;4.70;99.90;;;;;;5003140;28;20054;-60
2022/02/25 02:20:00;;;;;;;7.43;2.10;;;4.70;99.90;;;;;;5001518;28;20452;-61
2022/02/25 02:22:27;;;;;;;10.57;2.13;;;4.70;99.90;;;;;;5001819;28;20061;-60
2022/02/25 02:24:55;;;;;;;6.65;1.83;;;4.70;99.90;;;;;;5002057;28;20072;-61
2022/02/25 02:27:21;;;;;;;9.55;2.22;;;4.60;99.90;;;;;;5002183;28;20133;-59
2022/02/25 02:29:48;;;;;;;10.50;2.30;;;4.60;99.90;;;;;;4998649;28;20128;-60
2022/02/25 02:32:15;;;;;;;5.90;2.40;;;4.60;99.90;;;;;;5002927;28;20053;-60
2022/02/25 02:34:42;;;;;;;10.18;2.25;;;4.60;99.90;;;;;;5000476;28;20093;-60
2022/02/25 02:37:10;;;;;;;10.00;2.10;;;4.60;99.90;;;;;;5004185;28;20425;-59
2022/02/25 02:39:37;;;;;;;6.40;2.53;;;4.60;99.90;;;;;;5003442;28;20104;-59
2022/02/25 02:42:04;;;;;;;8.68;2.35;;;4.60;99.90;;;;;;5003633;28;20058;-59
2022/02/25 02:44:31;;;;;;;4.85;1.60;;;4.60;99.90;;;;;;5000040;28;20088;-60
2022/02/25 02:47:00;;;;;;;6.13;1.80;;;4.50;99.90;;;;;;5004272;28;20054;-60
2022/02/25 02:49:27;;;;;;;4.97;1.63;;;4.50;99.90;;;;;;5003137;28;20042;-59
2022/02/25 02:51:54;;;;;;;5.30;1.63;;;4.50;99.90;;;;;;5003536;28;20473;-59
2022/02/25 02:54:21;;;;;;;6.45;1.60;;;4.50;99.90;;;;;;5003260;28;20126;-60
2022/02/25 02:56:48;;;;;;;7.28;2.00;;;4.50;99.90;;;;;;5003613;28;20046;-60
2022/02/25 02:59:14;;;;;;;10.23;2.08;;;4.40;99.90;;;;;;5000539;28;20136;-60
2022/02/25 03:01:43;;;;;;;11.63;2.50;;;4.40;99.90;;;;;;5002428;28;20505;-59
2022/02/25 03:04:12;;;;;;;5.80;1.67;;;4.40;99.90;;;;;;5003449;28;20050;-59
2022/02/25 03:06:39;;;;;;;5.28;1.52;;;4.40;99.90;;;;;;5002702;28;20082;-60
2022/02/25 03:09:08;;;;;;;5.60;1.58;;;4.40;99.90;;;;;;5001636;28;20048;-60
2022/02/25 03:11:35;;;;;;;6.97;1.90;;;4.30;99.90;;;;;;4998198;28;20053;-60
2022/02/25 03:14:03;;;;;;;6.45;1.33;;;4.30;99.90;;;;;;5001740;28;20137;-59
2022/02/25 03:16:30;;;;;;;5.95;2.53;;;4.30;99.90;;;;;;5003487;28;20045;-59
2022/02/25 03:18:57;;;;;;;4.60;1.95;;;4.20;99.90;;;;;;5002069;28;20175;-59
2022/02/25 03:21:23;;;;;;;6.53;1.90;;;4.20;99.90;;;;;;5022219;28;20144;-60
2022/02/25 03:23:50;;;;;;;8.75;1.80;;;4.20;99.90;;;;;;5008114;28;20405;-60
2022/02/25 03:26:17;;;;;;;10.23;1.90;;;4.20;99.90;;;;;;5002873;28;20149;-59
2022/02/25 03:28:44;;;;;;;7.63;1.80;;;4.10;99.90;;;;;;5000921;28;20077;-59
2022/02/25 03:31:10;;;;;;;11.27;1.83;;;4.10;99.90;;;;;;5001571;28;20585;-60
2022/02/25 03:33:37;;;;;;;15.65;2.10;;;4.10;99.90;;;;;;5008399;28;20092;-60
2022/02/25 03:36:04;;;;;;;6.28;1.48;;;4.10;99.90;;;;;;5007250;28;20053;-59
2022/02/25 03:38:31;;;;;;;6.43;1.73;;;4.00;99.90;;;;;;5002813;28;20137;-58
2022/02/25 03:40:58;;;;;;;6.60;1.73;;;4.00;99.90;;;;;;5003822;28;20062;-60
2022/02/25 03:43:24;;;;;;;3.75;1.33;;;4.00;99.90;;;;;;5002659;28;20137;-59
2022/02/25 03:45:51;;;;;;;7.63;2.00;;;4.00;99.90;;;;;;5001861;28;20635;-60
2022/02/25 03:48:18;;;;;;;6.55;2.22;;;4.00;99.90;;;;;;5003768;28;20261;-59
2022/02/25 03:50:45;;;;;;;6.82;2.00;;;4.00;99.90;;;;;;5003294;28;20125;-60
2022/02/25 03:53:12;;;;;;;4.30;1.58;;;4.10;99.90;;;;;;5002691;28;20081;-59
2022/02/25 03:55:39;;;;;;;6.80;1.92;;;4.00;99.90;;;;;;5003175;28;20042;-57
2022/02/25 03:58:05;;;;;;;5.85;1.65;;;4.00;99.90;;;;;;5001126;28;20132;-59
2022/02/25 04:00:32;;;;;;;5.90;1.85;;;4.00;99.90;;;;;;5001730;28;20134;-60
2022/02/25 04:02:59;;;;;;;5.10;1.63;;;4.00;99.90;;;;;;5003248;28;20540;-60
2022/02/25 04:05:26;;;;;;;4.00;1.48;;;4.00;99.90;;;;;;5002560;28;20050;-59
2022/02/25 04:07:56;;;;;;;6.18;1.73;;;4.10;99.90;;;;;;5002555;28;20053;-60
2022/02/25 04:10:25;;;;;;;6.85;1.88;;;4.00;99.90;;;;;;5002732;28;20620;-60
2022/02/25 04:12:51;;;;;;;7.25;2.08;;;4.10;99.90;;;;;;5006044;28;20097;-59
2022/02/25 04:15:19;;;;;;;7.13;2.25;;;4.10;99.90;;;;;;5005107;28;20186;-60
2022/02/25 04:17:46;;;;;;;6.75;2.05;;;4.10;99.90;;;;;;5002828;28;20108;-60
2022/02/25 04:20:13;;;;;;;6.13;1.73;;;4.10;99.90;;;;;;5006588;28;20104;-60
2022/02/25 04:22:40;;;;;;;6.40;1.92;;;4.10;99.90;;;;;;5006492;28;20050;-60
2022/02/25 04:25:09;;;;;;;6.68;1.98;;;4.10;99.90;;;;;;5006115;28;20149;-58
2022/02/25 04:27:37;;;;;;;9.13;2.20;;;4.10;99.90;;;;;;5006182;28;20099;-60
2022/02/25 04:30:04;;;;;;;5.20;2.20;;;4.10;99.90;;;;;;5003689;28;20425;-60
2022/02/25 04:32:31;;;;;;;5.47;1.52;;;4.10;99.90;;;;;;5006316;28;20449;-60
2022/02/25 04:34:58;;;;;;;6.95;1.48;;;4.10;99.90;;;;;;5006545;28;20503;-59
2022/02/25 04:37:25;;;;;;;7.07;2.15;;;4.10;99.90;;;;;;5006142;28;20104;-60
2022/02/25 04:39:52;;;;;;;9.32;2.45;;;4.10;99.90;;;;;;5006192;28;20124;-60
2022/02/25 04:42:19;;;;;;;9.68;2.20;;;4.10;99.90;;;;;;5006880;28;20049;-59
2022/02/25 04:44:45;;;;;;;10.48;2.45;;;4.10;99.90;;;;;;5022712;28;20080;-60
2022/02/25 04:47:12;;;;;;;7.18;2.22;;;4.10;99.90;;;;;;5023652;28;20085;-60
2022/02/25 04:49:39;;;;;;;5.40;1.50;;;4.10;99.90;;;;;;5024494;28;20080;-59
2022/02/25 04:52:06;;;;;;;5.55;1.92;;;4.20;99.90;;;;;;5016809;28;20572;-59
2022/02/25 04:54:33;;;;;;;5.20;1.45;;;4.20;99.90;;;;;;5005043;28;20129;-60
2022/02/25 04:57:00;;;;;;;4.55;1.52;;;4.20;99.90;;;;;;5004373;28;20103;-60
2022/02/25 04:59:28;;;;;;;5.80;1.75;;;4.10;99.90;;;;;;5003167;28;20132;-60
2022/02/25 05:01:54;;;;;;;8.35;1.90;;;4.10;99.90;;;;;;5006183;28;20081;-60
2022/02/25 05:04:21;;;;;;;4.22;2.03;;;4.10;99.90;;;;;;5005382;28;20048;-60
2022/02/25 05:06:48;;;;;;;5.50;1.23;;;4.10;99.90;;;;;;5024819;28;20069;-59
2022/02/25 05:09:15;;;;;;;8.27;1.65;;;4.00;99.90;;;;;;5018644;28;20130;-60
2022/02/25 05:11:42;;;;;;;4.50;1.30;;;4.00;99.90;;;;;;5005284;28;20121;-60
2022/02/25 05:20:15;;;;;;;5.70;1.67;;;4.00;99.90;;;;;;5000657;28;20061;-60
2022/02/25 05:22:29;;;;;;;5.45;1.52;;;4.00;99.90;;;;;;5013698;28;20142;-60
2022/02/25 05:24:55;;;;;;;8.90;2.08;;;4.00;99.90;;;;;;5004078;28;20041;-60
2022/02/25 05:27:22;;;;;;;5.25;1.40;;;4.00;99.90;;;;;;5005287;28;20084;-60
2022/02/25 05:29:49;;;;;;;5.93;1.50;;;4.00;99.90;;;;;;5003940;28;20133;-60
2022/02/25 05:32:16;;;;;;;5.82;1.80;;;4.00;99.90;;;;;;5003586;28;20049;-60
2022/02/25 05:34:43;;;;;;;3.85;2.05;;;4.00;99.90;;;;;;5012009;28;20149;-60
2022/02/25 05:37:09;;;;;;;6.95;1.95;;;4.00;99.90;;;;;;5005124;28;20081;-60
2022/02/25 05:39:36;;;;;;;9.35;1.90;;;3.90;99.90;;;;;;5003823;28;20076;-60
2022/02/25 05:42:03;;;;;;;4.28;1.40;;;3.90;99.90;;;;;;5005093;28;20494;-60
2022/02/25 05:44:30;;;;;;;5.95;1.60;;;3.90;99.90;;;;;;5003339;28;20144;-59
2022/02/25 05:46:57;;;;;;;5.68;1.50;;;3.90;99.90;;;;;;5005282;28;20081;-60
2022/02/25 05:49:25;;;;;;;7.05;1.70;;;3.90;99.90;;;;;;5005469;28;20529;-60
2022/02/25 05:51:52;;;;;;;6.75;1.80;;;3.90;99.90;;;;;;5005248;28;20088;-60
2022/02/25 05:54:18;;;;;;;8.75;2.22;;;3.90;99.90;;;;;;5003990;28;20046;-60
2022/02/25 05:56:45;;;;;;;8.25;2.47;;;3.90;99.90;;;;;;5004369;28;20137;-60
2022/02/25 05:59:12;;;;;;;6.70;2.10;;;3.90;99.90;;;;;;5003088;28;20553;-59
2022/02/25 06:01:38;;;;;;;8.82;2.10;;;3.90;99.90;;;;;;5005329;28;20073;-60
2022/02/25 06:04:05;;;;;;;5.43;1.80;;;4.00;99.90;;;;;;5001545;28;20069;-60
2022/02/25 06:06:32;;;;;;;6.20;2.10;;;3.90;99.90;;;;;;5003271;28;20050;-60
2022/02/25 06:08:59;;;;;;;8.77;1.67;;;3.90;99.90;;;;;;5002000;28;20073;-60
2022/02/25 06:11:26;;;;;;;7.22;1.40;;;3.90;99.90;;;;;;5002040;28;20133;-60
2022/02/25 06:13:52;;;;;;;6.32;1.77;;;3.90;99.90;;;;;;4999438;28;20179;-60
2022/02/25 06:16:20;;;;;;;7.47;1.80;;;3.90;99.90;;;;;;5002350;28;20069;-59
2022/02/25 06:18:48;;;;;;;5.40;1.60;;;3.90;99.90;;;;;;5002259;28;20143;-61
2022/02/25 06:21:14;;;;;;;5.18;1.70;;;3.80;99.90;;;;;;5002098;28;20077;-60
2022/02/25 06:23:41;;;;;;;7.53;2.40;;;3.90;99.90;;;;;;5001046;28;20161;-61
2022/02/25 06:26:08;;;;;;;5.90;2.35;;;3.90;99.90;;;;;;5001266;28;20116;-60
2022/02/25 06:28:35;;;;;;;5.72;1.60;;;3.80;99.90;;;;;;5002671;28;20141;-58
2022/02/25 06:31:02;;;;;;;5.68;1.30;;;3.80;99.90;;;;;;5000814;28;20453;-60
2022/02/25 06:33:29;;;;;;;5.07;1.83;;;3.80;99.90;;;;;;5000384;28;20111;-60
2022/02/25 06:35:56;;;;;;;6.55;1.75;;;3.80;99.90;;;;;;5002077;28;20054;-60
2022/02/25 06:38:25;;;;;;;8.10;2.42;;;3.90;99.90;;;;;;5000819;28;20102;-60
2022/02/25 06:40:52;;;;;;;5.97;1.67;;;3.90;99.90;;;;;;5001409;28;20073;-60
2022/02/25 06:43:19;;;;;;;6.22;1.40;;;3.80;99.90;;;;;;4998971;28;20077;-60
2022/02/25 06:45:46;;;;;;;4.80;1.85;;;3.80;99.90;;;;;;4994477;28;20850;-59
2022/02/25 06:48:13;;;;;;;8.10;1.52;;;3.80;99.90;;;;;;4997697;28;20064;-60
2022/02/25 06:50:40;;;;;;;7.50;2.15;;;3.80;99.90;;;;;;4994037;28;20830;-60
2022/02/25 06:53:08;;;;;;;6.45;1.73;;;3.80;99.90;;;;;;5004521;28;20061;-59
2022/02/25 06:55:35;;;;;;;5.38;1.58;;;3.80;99.90;;;;;;5004609;28;20138;-60
2022/02/25 06:58:03;;;;;;;6.55;1.83;;;3.80;99.90;;;;;;5005948;28;20081;-60
2022/02/25 07:00:30;;;;;;;4.63;1.23;;;3.80;99.90;;;;;;4999885;28;20421;-61
2022/02/25 07:02:57;;;;;;;3.45;2.00;;;3.80;99.90;;;;;;5007355;28;20077;-60
2022/02/25 07:05:25;;;;;;;7.60;1.95;;;3.80;99.90;;;;;;5002599;28;20070;-60
2022/02/25 07:07:52;;;;;;;8.15;2.25;;;3.80;99.90;;;;;;5007405;28;20333;-60
2022/02/25 07:10:19;;;;;;;7.28;1.50;;;3.80;99.90;;;;;;5004602;28;20072;-60
2022/02/25 07:12:46;;;;;;;5.22;1.65;;;3.80;99.90;;;;;;5005558;28;20145;-60
2022/02/25 07:15:14;;;;;;;8.70;1.95;;;3.90;99.90;;;;;;5005351;28;20157;-60
2022/02/25 07:17:41;;;;;;;6.70;1.75;;;3.90;99.90;;;;;;5004508;28;20135;-61
2022/02/25 07:20:08;;;;;;;5.88;1.67;;;3.90;99.90;;;;;;5001012;28;20137;-61
2022/02/25 07:22:44;;;;;;;6.40;1.90;;;3.90;99.90;;;;;;4997387;28;20057;-59
2022/02/25 07:25:10;;;;;;;5.53;1.58;;;3.90;99.90;;;;;;5007049;28;20075;-61
2022/02/25 07:27:38;;;;;;;5.93;1.95;;;3.90;99.90;;;;;;5004935;28;20382;-60
2022/02/25 07:30:07;;;;;;;6.13;1.85;;;4.00;99.90;;;;;;5005691;28;20046;-61
2022/02/25 07:32:34;;;;;;;6.93;1.88;;;4.00;99.90;;;;;;5005236;28;20186;-60
2022/02/25 07:35:03;;;;;;;6.05;1.90;;;3.90;99.90;;;;;;4996580;28;20137;-61
2022/02/25 07:37:30;;;;;;;5.82;1.70;;;4.00;99.90;;;;;;4990694;28;20141;-60
2022/02/25 07:39:57;;;;;;;5.15;1.60;;;4.00;99.90;;;;;;4996807;28;20092;-62
2022/02/25 07:42:25;;;;;;;3.88;1.58;;;4.00;99.90;;;;;;4997485;28;20046;-61
2022/02/25 07:44:51;;;;;;;4.63;1.63;;;4.00;99.90;;;;;;4987674;28;21025;-61
2022/02/25 07:47:19;;;;;;;2.65;1.15;;;4.10;99.90;;;;;;4989048;28;20498;-61
2022/02/25 07:49:46;;;;;;;7.28;2.30;;;4.10;99.90;;;;;;5000352;28;20095;-61
2022/02/25 07:52:13;;;;;;;4.60;1.40;;;4.10;99.90;;;;;;4997036;28;20071;-60
2022/02/25 07:54:40;;;;;;;5.85;2.28;;;4.20;99.90;;;;;;4995767;28;20458;-61
2022/02/25 07:57:07;;;;;;;5.55;1.70;;;4.20;99.90;;;;;;4997243;28;20500;-61
2022/02/25 07:59:34;;;;;;;6.55;1.85;;;4.30;99.90;;;;;;4997445;28;20072;-61
2022/02/25 08:02:00;;;;;;;9.07;2.40;;;4.30;99.90;;;;;;4987701;28;20305;-61
2022/02/25 08:04:29;;;;;;;6.38;1.92;;;4.30;99.90;;;;;;5008341;28;20373;-61
2022/02/25 08:07:16;;;;;;;6.82;2.10;;;4.40;99.90;;;;;;5001549;28;20124;-61
2022/02/25 08:09:46;;;;;;;8.10;2.40;;;4.40;99.90;;;;;;5016124;28;20069;-59
2022/02/25 08:12:13;;;;;;;5.85;2.15;;;4.50;99.90;;;;;;4991098;28;20133;-61
2022/02/25 08:14:40;;;;;;;7.95;2.50;;;4.50;99.90;;;;;;4998911;28;20180;-60
2022/02/25 08:17:07;;;;;;;8.30;2.10;;;4.60;99.90;;;;;;5010236;28;20067;-61
2022/02/25 08:19:35;;;;;;;7.95;2.00;;;4.60;99.90;;;;;;5011156;28;20061;-61
2022/02/25 08:22:02;;;;;;;8.95;2.20;;;4.60;99.90;;;;;;5004237;28;20041;-61
2022/02/25 08:24:34;;;;;;;7.85;2.15;;;4.70;99.90;;;;;;4984701;28;20058;-62
2022/02/25 08:27:01;;;;;;;5.28;1.80;;;4.70;99.90;;;;;;4981502;28;20582;-61
2022/02/25 08:29:28;;;;;;;9.82;3.38;;;4.70;99.90;;;;;;4982654;28;20142;-61
2022/02/25 08:31:55;;;;;;;9.23;2.20;;;4.80;99.90;;;;;;4994749;28;20093;-61
2022/02/25 08:34:22;;;;;;;9.80;2.28;;;4.90;99.90;;;;;;5000610;28;20100;-61
2022/02/25 08:36:49;;;;;;;10.73;2.72;;;4.90;99.90;;;;;;4987470;28;20595;-60
2022/02/25 08:39:17;;;;;;;9.25;2.60;;;5.00;99.90;;;;;;4998694;28;20053;-61
2022/02/25 08:41:44;;;;;;;5.90;2.30;;;5.00;99.90;;;;;;4999835;28;20383;-60
2022/02/25 08:44:11;;;;;;;4.85;1.92;;;5.00;99.90;;;;;;4995052;28;20049;-61
2022/02/25 08:46:37;;;;;;;6.45;2.15;;;5.10;99.90;;;;;;4988951;28;20146;-61
2022/02/25 08:49:05;;;;;;;7.30;2.65;;;5.20;99.90;;;;;;4996549;28;20104;-61
2022/02/25 08:51:32;;;;;;;6.38;2.20;;;5.20;99.90;;;;;;4996677;28;20069;-61
2022/02/25 08:53:59;;;;;;;3.80;1.27;;;5.30;99.90;;;;;;4988741;28;20086;-61
2022/02/25 08:56:26;;;;;;;5.05;2.13;;;5.30;99.90;;;;;;4984743;28;20074;-61
2022/02/25 08:58:53;;;;;;;7.03;2.25;;;5.40;99.90;;;;;;4984436;28;20149;-61
2022/02/25 09:01:20;;;;;;;10.32;2.85;;;5.50;99.90;;;;;;4984355;28;20502;-61
2022/02/25 09:03:47;;;;;;;9.43;2.30;;;5.50;99.90;;;;;;4991070;28;20089;-60
2022/02/25 09:06:14;;;;;;;11.98;2.42;;;5.60;99.90;;;;;;4988075;28;20078;-61
2022/02/25 09:08:42;;;;;;;7.40;2.45;;;5.70;99.90;;;;;;5013384;28;20061;-59
2022/02/25 09:11:09;;;;;;;7.57;2.53;;;5.70;99.90;;;;;;5021926;28;20390;-61
2022/02/25 09:13:36;;;;;;;6.30;1.90;;;5.80;99.90;;;;;;5002437;28;20108;-61
2022/02/25 09:16:04;;;;;;;5.50;1.98;;;5.90;99.90;;;;;;5001327;28;20105;-61
2022/02/25 09:18:31;;;;;;;6.47;1.98;;;6.00;99.90;;;;;;4992015;28;20097;-61
2022/02/25 09:20:57;;;;;;;8.00;2.15;;;6.00;99.90;;;;;;4990211;28;20113;-61
2022/02/25 09:23:24;;;;;;;10.70;2.38;;;6.00;99.90;;;;;;4996334;28;20407;-61
2022/02/25 09:25:51;;;;;;;7.38;2.42;;;6.10;99.90;;;;;;4983809;28;20093;-61
2022/02/25 09:28:18;;;;;;;6.25;1.80;;;6.20;99.90;;;;;;4983571;28;20614;-61
2022/02/25 09:30:47;;;;;;;7.43;2.10;;;6.30;99.90;;;;;;4982647;28;20042;-61
2022/02/25 09:33:14;;;;;;;4.72;1.55;;;6.30;99.90;;;;;;4996289;28;20628;-62
2022/02/25 09:35:41;;;;;;;8.25;2.00;;;6.40;99.90;;;;;;4994987;28;20134;-63
2022/02/25 09:38:08;;;;;;;8.00;1.77;;;6.50;99.90;;;;;;4990735;28;20141;-62
2022/02/25 09:40:36;;;;;;;5.32;1.58;;;6.50;99.90;;;;;;5010647;28;20089;-61
2022/02/25 09:43:03;;;;;;;7.90;2.55;;;6.60;99.90;;;;;;4998604;28;20081;-62
2022/02/25 09:45:29;;;;;;;6.57;1.67;;;6.70;99.90;;;;;;5020865;28;20052;-62
2022/02/25 09:48:02;;;;;;;8.27;1.60;;;6.70;99.90;;;;;;5004827;28;20321;-62
2022/02/25 09:50:30;;;;;;;5.45;2.10;;;6.80;99.90;;;;;;4988274;28;20042;-63
2022/02/25 09:52:56;;;;;;;4.53;1.77;;;6.90;99.90;;;;;;4996928;28;20165;-65
2022/02/25 09:55:33;;;;;;;7.28;1.90;;;7.00;99.90;;;;;;5002030;28;20664;-62
2022/02/25 09:58:03;;;;;;;6.38;2.10;;;7.00;99.90;;;;;;4987212;28;20054;-61
2022/02/25 10:00:34;;;;;;;8.35;2.40;;;7.10;99.90;;;;;;4990254;28;20485;-61
2022/02/25 10:03:03;;;;;;;9.90;2.30;;;7.10;99.90;;;;;;4995570;28;20102;-61
2022/02/25 10:05:31;;;;;;;9.93;2.40;;;7.20;99.90;;;;;;4998930;28;20054;-61
2022/02/25 10:08:15;;;;;;;10.25;2.85;;;7.20;99.90;;;;;;4992198;28;20081;-61
2022/02/25 10:10:53;;;;;;;7.28;2.67;;;7.30;99.90;;;;;;5013547;28;20045;-62
2022/02/25 10:13:21;;;;;;;8.95;2.33;;;7.30;99.90;;;;;;5006307;28;21741;-61
2022/02/25 10:15:50;;;;;;;9.15;2.28;;;7.40;99.90;;;;;;4982346;28;20395;-61
2022/02/25 10:18:31;;;;;;;5.32;1.80;;;7.50;99.90;;;;;;4989368;28;20088;-61
2022/02/25 10:21:09;;;;;;;4.90;1.75;;;7.60;99.90;;;;;;4995111;28;20046;-61
2022/02/25 10:23:40;;;;;;;9.13;1.58;;;7.80;99.90;;;;;;4992799;28;20050;-62
2022/02/25 10:26:11;;;;;;;8.30;2.08;;;7.90;99.90;;;;;;4985824;28;20355;-62
2022/02/25 10:28:41;;;;;;;5.50;1.85;;;8.00;99.90;;;;;;4992582;28;20152;-62
2022/02/25 10:31:36;;;;;;;9.10;2.50;;;8.20;99.90;;;;;;5000333;28;20054;-61
2022/02/25 10:34:07;;;;;;;6.10;1.88;;;8.30;99.90;;;;;;4997175;28;20144;-61
2022/02/25 10:36:45;;;;;;;6.25;1.90;;;8.30;99.90;;;;;;4998578;28;20046;-61
2022/02/25 10:39:16;;;;;;;5.35;1.60;;;8.40;99.90;;;;;;4980246;28;20061;-60
2022/02/25 10:42:00;;;;;;;8.25;2.10;;;8.50;99.90;;;;;;4981784;28;20130;-61
2022/02/25 10:44:38;;;;;;;5.32;1.88;;;8.60;99.90;;;;;;4994034;28;20097;-62
2022/02/25 10:47:23;;;;;;;6.25;1.52;;;8.80;99.90;;;;;;4994600;28;20045;-61
2022/02/25 10:49:58;;;;;;;6.78;1.67;;;8.80;99.90;;;;;;5001235;28;20081;-61
2022/02/25 10:52:33;;;;;;;6.57;1.98;;;8.80;99.90;;;;;;4997681;28;20050;-62
2022/02/25 10:55:01;;;;;;;4.75;1.88;;;8.80;99.90;;;;;;5009789;28;20142;-62
2022/02/25 10:57:28;;;;;;;5.93;1.80;;;8.90;99.90;;;;;;5017089;28;20136;-61
2022/02/25 10:59:56;;;;;;;6.18;2.13;;;8.90;99.90;;;;;;4997419;28;20521;-61
2022/02/25 11:02:30;;;;;;;6.25;2.25;;;8.90;99.90;;;;;;4997969;28;20062;-61
2022/02/25 11:05:08;;;;;;;6.45;2.15;;;8.90;99.90;;;;;;4997727;28;20587;-62
2022/02/25 11:07:37;;;;;;;7.03;2.00;;;9.10;99.90;;;;;;4991840;28;20085;-61
2022/02/25 11:10:05;;;;;;;6.15;1.70;;;9.10;99.90;;;;;;4993707;28;20576;-62
2022/02/25 11:12:31;;;;;;;7.25;2.40;;;9.10;99.90;;;;;;4990210;28;20535;-61
2022/02/25 11:14:58;;;;;;;5.45;2.17;;;9.20;99.90;;;;;;4979904;28;20054;-61
2022/02/25 11:17:25;;;;;;;6.35;1.77;;;9.20;99.90;;;;;;4980387;28;20081;-61
2022/02/25 11:19:55;;;;;;;8.48;2.10;;;9.20;99.90;;;;;;4983155;28;20057;-61
2022/02/25 11:22:22;;;;;;;5.32;1.85;;;9.30;99.90;;;;;;4987227;28;20162;-62
2022/02/25 11:24:48;;;;;;;5.05;1.70;;;9.40;99.90;;;;;;4964754;28;20141;-61
2022/02/25 11:27:31;;;;;;;2.77;1.30;;;9.60;99.90;;;;;;4976634;28;20094;-61
2022/02/25 11:30:21;;;;;;;8.73;2.10;;;9.80;99.90;;;;;;4983556;28;20485;-61
2022/02/25 11:33:00;;;;;;;4.25;1.70;;;9.80;99.90;;;;;;4947421;28;1235313;-61
2022/02/25 11:35:32;;;;;;;5.07;1.63;;;9.80;99.90;;;;;;4992107;28;20137;-62
2022/02/25 11:38:06;;;;;;;3.70;1.40;;;10.00;99.90;;;;;;4991591;28;20330;-61
2022/02/25 11:40:46;;;;;;;6.85;1.98;;;10.10;99.90;;;;;;4994259;28;20081;-61
2022/02/25 11:43:14;;;;;;;5.30;2.40;;;10.00;99.90;;;;;;4992302;28;20362;-60
2022/02/25 11:45:48;;;;;;;4.90;1.30;;;10.20;99.90;;;;;;4991708;28;20137;-60
2022/02/25 11:48:39;;;;;;;5.88;2.30;;;10.50;99.90;;;;;;4995491;28;20566;-60
2022/02/25 11:51:08;;;;;;;6.57;2.13;;;10.40;99.90;;;;;;4991880;28;20165;-60
2022/02/25 11:53:35;;;;;;;6.57;1.88;;;10.30;99.90;;;;;;4989852;28;20065;-60
2022/02/25 11:56:21;;;;;;;7.20;2.13;;;10.30;99.90;;;;;;4988420;28;20482;-60
2022/02/25 11:58:48;;;;;;;5.93;1.67;;;10.20;99.90;;;;;;4986560;28;20471;-59
2022/02/25 12:01:21;;;;;;;4.80;1.42;;;10.30;99.90;;;;;;4985754;28;20081;-60
2022/02/25 12:04:05;;;;;;;5.15;1.60;;;10.20;99.90;;;;;;4984901;28;20050;-60
2022/02/25 12:07:00;;;;;;;6.72;2.20;;;10.20;99.90;;;;;;4984852;28;20196;-60
2022/02/25 12:09:48;;;;;;;6.70;2.47;;;10.20;99.90;;;;;;4977524;28;20054;-60
2022/02/25 12:12:24;;;;;;;5.97;2.50;;;10.50;99.90;;;;;;4982086;28;20378;-60
2022/02/25 12:15:22;;;;;;;3.75;1.70;;;10.70;99.90;;;;;;5009508;28;20068;-60
2022/02/25 12:17:51;;;;;;;7.53;1.98;;;10.80;99.90;;;;;;4982659;28;20077;-60
2022/02/25 12:20:18;;;;;;;6.65;2.10;;;10.90;99.90;;;;;;4978751;28;20050;-60
2022/02/25 12:22:57;;;;;;;4.95;2.03;;;11.00;99.90;;;;;;4986514;28;20484;-60
2022/02/25 12:25:44;;;;;;;4.82;1.65;;;11.10;99.90;;;;;;5011263;28;20469;-60
2022/02/25 12:28:11;;;;;;;6.25;2.00;;;11.20;99.90;;;;;;5013973;28;20192;-60
2022/02/25 12:30:48;;;;;;;5.47;1.55;;;11.30;99.90;;;;;;4996619;28;20050;-60
2022/02/25 12:33:56;;;;;;;4.50;1.42;;;11.30;99.90;;;;;;4999311;28;20521;-59
2022/02/25 12:36:29;;;;;;;4.07;1.70;;;11.30;99.90;;;;;;5001258;28;20632;-60
2022/02/25 12:39:11;;;;;;;4.68;1.98;;;11.60;99.40;;;;;;5001097;28;20525;-60
2022/02/25 12:41:42;;;;;;;4.88;1.85;;;11.80;98.70;;;;;;5014763;28;20183;-61
2022/02/25 12:44:23;;;;;;;6.28;1.88;;;11.80;99.40;;;;;;5003177;28;20608;-60
2022/02/25 12:47:08;;;;;;;5.57;1.73;;;11.70;98.80;;;;;;4999550;28;20054;-60
2022/02/25 12:49:36;;;;;;;4.50;1.75;;;11.70;98.40;;;;;;5000787;28;20089;-61
2022/02/25 12:52:06;;;;;;;6.82;2.88;;;12.00;98.80;;;;;;5001423;28;20042;-60
2022/02/25 12:54:33;;;;;;;5.57;1.90;;;12.00;98.20;;;;;;4999674;28;20564;-60
2022/02/25 12:57:02;;;;;;;5.50;2.03;;;11.90;98.10;;;;;;5000679;28;20539;-61
2022/02/25 12:59:33;;;;;;;4.22;1.92;;;11.60;97.50;;;;;;4999020;28;20045;-60
2022/02/25 13:02:01;;;;;;;5.05;2.33;;;11.80;98.50;;;;;;5000089;28;20153;-60
2022/02/25 13:04:31;;;;;;;5.72;1.90;;;12.00;97.60;;;;;;4992045;28;20137;-60
2022/02/25 13:07:00;;;;;;;6.57;2.38;;;11.80;96.70;;;;;;4998388;28;20346;-60
2022/02/25 13:09:29;;;;;;;3.50;1.80;;;11.90;97.30;;;;;;4998646;28;20117;-60
2022/02/25 13:12:01;;;;;;;3.65;1.35;;;12.40;97.10;;;;;;4999931;28;20132;-61